Time;durP1;ratioP1;P1;durP2;ratioP2;P2;SDS_P1;SDS_P2;PMS_P1;PMS_P2;Temp;Humidity;BMP_temperature;BMP_pressure;BME280_temperature;BME280_humidity;BME280_pressure;Samples;Min_cycle;Max_cycle;Signal;HPM_P1;HPM_P2
2022/09/28 00:00:19;;;;;;;1.2;1.1;;;;;;;9.06;89.48438;93950.89;;;;
2022/09/28 00:01:20;;;;;;;2.25;1.15;;;;;;;9.02;89.38086;93939.61;;;;
2022/09/28 00:02:24;;;;;;;2.25;1.15;;;;;;;9.02;89.38086;93939.61;;;;
2022/09/28 00:03:24;;;;;;;2.25;1.15;;;;;;;9.02;89.38086;93939.61;;;;
2022/09/28 00:04:25;;;;;;;2.25;1.15;;;;;;;9.02;89.38086;93939.61;;;;
2022/09/28 00:05:26;;;;;;;2.25;1.15;;;;;;;9.02;89.38086;93939.61;;;;
2022/09/28 00:06:26;;;;;;;2.25;1.15;;;;;;;9.02;89.38086;93939.61;;;;
2022/09/28 00:07:29;;;;;;;2.25;1.15;;;;;;;9.02;89.38086;93939.61;;;;
2022/09/28 00:08:29;;;;;;;2.25;1.15;;;;;;;9.02;89.38086;93939.61;;;;
2022/09/28 00:09:30;;;;;;;2.25;1.15;;;;;;;9.02;89.38086;93939.61;;;;
2022/09/28 00:10:31;;;;;;;2.25;1.15;;;;;;;9.02;89.38086;93939.61;;;;
2022/09/28 00:11:32;;;;;;;1.05;1;;;;;;;9.05;89.58887;93920.68;;;;
2022/09/28 00:12:33;;;;;;;1.05;1;;;;;;;9.05;89.58887;93920.68;;;;
2022/09/28 00:13:34;;;;;;;1.05;1;;;;;;;9.05;89.58887;93920.68;;;;
2022/09/28 00:14:34;;;;;;;1.05;1;;;;;;;9.05;89.58887;93920.68;;;;
2022/09/28 00:15:35;;;;;;;1.05;1;;;;;;;9.05;89.58887;93920.68;;;;
2022/09/28 00:16:35;;;;;;;1.05;1;;;;;;;9.05;89.58887;93920.68;;;;
2022/09/28 00:17:42;;;;;;;1.05;1;;;;;;;9.05;89.58887;93920.68;;;;
2022/09/28 00:18:44;;;;;;;1.05;1;;;;;;;9.05;89.58887;93920.68;;;;
2022/09/28 00:19:45;;;;;;;1.05;1;;;;;;;9.05;89.58887;93920.68;;;;
2022/09/28 00:20:45;;;;;;;1.05;1;;;;;;;9.05;89.58887;93920.68;;;;
2022/09/28 00:21:46;;;;;;;1.05;1;;;;;;;9.05;89.58887;93920.68;;;;
2022/09/28 00:22:47;;;;;;;1.3;1;;;;;;;9.03;89.53125;93895.98;;;;
2022/09/28 00:24:20;;;;;;;1.3;1;;;;;;;9.03;89.53125;93895.98;;;;
2022/09/28 00:25:20;;;;;;;1.3;1;;;;;;;9.03;89.53125;93895.98;;;;
2022/09/28 00:26:21;;;;;;;1.3;1;;;;;;;9.03;89.53125;93895.98;;;;
2022/09/28 00:27:22;;;;;;;1.3;1;;;;;;;9.03;89.53125;93895.98;;;;
2022/09/28 00:28:22;;;;;;;1.3;1;;;;;;;9.03;89.53125;93895.98;;;;
2022/09/28 00:29:23;;;;;;;1.3;1;;;;;;;9.03;89.53125;93895.98;;;;
2022/09/28 00:30:26;;;;;;;1.3;1;;;;;;;9.03;89.53125;93895.98;;;;
2022/09/28 00:31:27;;;;;;;1.3;1;;;;;;;9.03;89.53125;93895.98;;;;
2022/09/28 00:32:32;;;;;;;1.3;1;;;;;;;9.03;89.53125;93895.98;;;;
2022/09/28 00:33:32;;;;;;;1.1;0.9;;;;;;;8.99;89.67285;93870.65;;;;
2022/09/28 00:34:33;;;;;;;1.1;0.9;;;;;;;8.99;89.67285;93870.65;;;;
2022/09/28 00:35:36;;;;;;;1.1;0.9;;;;;;;8.99;89.67285;93870.65;;;;
2022/09/28 00:36:36;;;;;;;1.1;0.9;;;;;;;8.99;89.67285;93870.65;;;;
2022/09/28 00:37:38;;;;;;;1.1;0.9;;;;;;;8.99;89.67285;93870.65;;;;
2022/09/28 00:38:39;;;;;;;1.1;0.9;;;;;;;8.99;89.67285;93870.65;;;;
2022/09/28 00:39:40;;;;;;;1.1;0.9;;;;;;;8.99;89.67285;93870.65;;;;
2022/09/28 00:40:41;;;;;;;1.1;0.9;;;;;;;8.99;89.67285;93870.65;;;;
2022/09/28 00:41:41;;;;;;;1.1;0.9;;;;;;;8.99;89.67285;93870.65;;;;
2022/09/28 00:42:43;;;;;;;1.1;0.9;;;;;;;8.99;89.67285;93870.65;;;;
2022/09/28 00:43:44;;;;;;;1.05;0.9;;;;;;;8.96;89.74219;93853.59;;;;
2022/09/28 00:44:44;;;;;;;1.05;0.9;;;;;;;8.96;89.74219;93853.59;;;;
2022/09/28 00:45:47;;;;;;;1.05;0.9;;;;;;;8.96;89.74219;93853.59;;;;
2022/09/28 00:46:56;;;;;;;1.05;0.9;;;;;;;8.96;89.74219;93853.59;;;;
2022/09/28 00:48:00;;;;;;;1.05;0.9;;;;;;;8.96;89.74219;93853.59;;;;
2022/09/28 00:49:02;;;;;;;1.05;0.9;;;;;;;8.96;89.74219;93853.59;;;;
2022/09/28 00:50:10;;;;;;;1.05;0.9;;;;;;;8.96;89.74219;93853.59;;;;
2022/09/28 00:51:19;;;;;;;1.05;0.9;;;;;;;8.96;89.74219;93853.59;;;;
2022/09/28 00:52:20;;;;;;;1.05;0.9;;;;;;;8.96;89.74219;93853.59;;;;
2022/09/28 00:53:27;;;;;;;1.05;0.9;;;;;;;8.96;89.74219;93853.59;;;;
2022/09/28 00:54:30;;;;;;;1.2;0.9;;;;;;;9;89.82227;93859.56;;;;
2022/09/28 00:55:31;;;;;;;1.2;0.9;;;;;;;9;89.82227;93859.56;;;;
2022/09/28 00:56:39;;;;;;;1.2;0.9;;;;;;;9;89.82227;93859.56;;;;
2022/09/28 00:57:45;;;;;;;1.2;0.9;;;;;;;9;89.82227;93859.56;;;;
2022/09/28 00:58:50;;;;;;;1.2;0.9;;;;;;;9;89.82227;93859.56;;;;
2022/09/28 00:59:52;;;;;;;1.2;0.9;;;;;;;9;89.82227;93859.56;;;;
2022/09/28 01:00:53;;;;;;;1.2;0.9;;;;;;;9;89.82227;93859.56;;;;
2022/09/28 01:01:56;;;;;;;1.2;0.9;;;;;;;9;89.82227;93859.56;;;;
2022/09/28 01:02:56;;;;;;;1.2;0.9;;;;;;;9;89.82227;93859.56;;;;
2022/09/28 01:03:57;;;;;;;1.2;0.9;;;;;;;9;89.82227;93859.56;;;;
2022/09/28 01:05:00;;;;;;;1;1;;;;;;;8.95;89.6748;93845.92;;;;
2022/09/28 01:06:04;;;;;;;1;1;;;;;;;8.95;89.6748;93845.92;;;;
2022/09/28 01:07:06;;;;;;;1;1;;;;;;;8.95;89.6748;93845.92;;;;
2022/09/28 01:08:08;;;;;;;1;1;;;;;;;8.95;89.6748;93845.92;;;;
2022/09/28 01:09:10;;;;;;;1;1;;;;;;;8.95;89.6748;93845.92;;;;
2022/09/28 01:10:12;;;;;;;1;1;;;;;;;8.95;89.6748;93845.92;;;;
2022/09/28 01:11:14;;;;;;;1;1;;;;;;;8.95;89.6748;93845.92;;;;
2022/09/28 01:12:15;;;;;;;1;1;;;;;;;8.95;89.6748;93845.92;;;;
2022/09/28 01:13:15;;;;;;;1;1;;;;;;;8.95;89.6748;93845.92;;;;
2022/09/28 01:14:17;;;;;;;1;1;;;;;;;8.95;89.6748;93845.92;;;;
2022/09/28 01:15:20;;;;;;;1;1;;;;;;;8.95;89.6748;93845.92;;;;
2022/09/28 01:16:23;;;;;;;1.05;1;;;;;;;8.81;89.6582;93816.42;;;;
2022/09/28 01:17:31;;;;;;;1.05;1;;;;;;;8.81;89.6582;93816.42;;;;
2022/09/28 01:18:44;;;;;;;1.05;1;;;;;;;8.81;89.6582;93816.42;;;;
2022/09/28 01:19:57;;;;;;;1.05;1;;;;;;;8.81;89.6582;93816.42;;;;
2022/09/28 01:21:14;;;;;;;1.05;1;;;;;;;8.81;89.6582;93816.42;;;;
2022/09/28 01:22:18;;;;;;;1.05;1;;;;;;;8.81;89.6582;93816.42;;;;
2022/09/28 01:23:29;;;;;;;1.05;1;;;;;;;8.81;89.6582;93816.42;;;;
2022/09/28 01:24:42;;;;;;;1.05;1;;;;;;;8.81;89.6582;93816.42;;;;
2022/09/28 01:25:45;;;;;;;1.05;1;;;;;;;8.81;89.6582;93816.42;;;;
2022/09/28 01:26:55;;;;;;;0.9;0.9;;;;;;;8.71;89.65625;93808.84;;;;
2022/09/28 01:28:01;;;;;;;0.9;0.9;;;;;;;8.71;89.65625;93808.84;;;;
2022/09/28 01:29:05;;;;;;;0.9;0.9;;;;;;;8.71;89.65625;93808.84;;;;
2022/09/28 01:30:15;;;;;;;0.9;0.9;;;;;;;8.71;89.65625;93808.84;;;;
2022/09/28 01:31:18;;;;;;;0.9;0.9;;;;;;;8.71;89.65625;93808.84;;;;
2022/09/28 01:32:25;;;;;;;0.9;0.9;;;;;;;8.71;89.65625;93808.84;;;;
2022/09/28 01:33:35;;;;;;;0.9;0.9;;;;;;;8.71;89.65625;93808.84;;;;
2022/09/28 01:34:41;;;;;;;0.9;0.9;;;;;;;8.71;89.65625;93808.84;;;;
2022/09/28 01:35:51;;;;;;;0.9;0.9;;;;;;;8.71;89.65625;93808.84;;;;
2022/09/28 01:36:57;;;;;;;1.2;1.1;;;;;;;8.63;89.81152;93778.03;;;;
2022/09/28 01:38:03;;;;;;;1.2;1.1;;;;;;;8.63;89.81152;93778.03;;;;
2022/09/28 01:39:07;;;;;;;1.2;1.1;;;;;;;8.63;89.81152;93778.03;;;;
2022/09/28 01:40:10;;;;;;;1.2;1.1;;;;;;;8.63;89.81152;93778.03;;;;
2022/09/28 01:41:16;;;;;;;1.2;1.1;;;;;;;8.63;89.81152;93778.03;;;;
2022/09/28 01:42:18;;;;;;;1.2;1.1;;;;;;;8.63;89.81152;93778.03;;;;
2022/09/28 01:43:23;;;;;;;1.2;1.1;;;;;;;8.63;89.81152;93778.03;;;;
2022/09/28 01:44:26;;;;;;;1.2;1.1;;;;;;;8.63;89.81152;93778.03;;;;
2022/09/28 01:45:30;;;;;;;1.2;1.1;;;;;;;8.63;89.81152;93778.03;;;;
2022/09/28 01:46:40;;;;;;;1.2;1.1;;;;;;;8.63;89.81152;93778.03;;;;
2022/09/28 01:47:44;;;;;;;1.85;1.05;;;;;;;8.67;89.99023;93760.33;;;;
2022/09/28 01:48:47;;;;;;;1.85;1.05;;;;;;;8.67;89.99023;93760.33;;;;
2022/09/28 01:49:54;;;;;;;1.85;1.05;;;;;;;8.67;89.99023;93760.33;;;;
2022/09/28 01:51:00;;;;;;;1.85;1.05;;;;;;;8.67;89.99023;93760.33;;;;
2022/09/28 01:52:07;;;;;;;1.85;1.05;;;;;;;8.67;89.99023;93760.33;;;;
2022/09/28 01:53:14;;;;;;;1.85;1.05;;;;;;;8.67;89.99023;93760.33;;;;
2022/09/28 01:54:20;;;;;;;1.85;1.05;;;;;;;8.67;89.99023;93760.33;;;;
2022/09/28 01:55:26;;;;;;;1.85;1.05;;;;;;;8.67;89.99023;93760.33;;;;
2022/09/28 01:56:30;;;;;;;1.85;1.05;;;;;;;8.67;89.99023;93760.33;;;;
2022/09/28 01:57:37;;;;;;;1.85;1.05;;;;;;;8.67;89.99023;93760.33;;;;
2022/09/28 01:58:42;;;;;;;1.2;0.9;;;;;;;8.69;90.0166;93731.78;;;;
2022/09/28 01:59:48;;;;;;;1.2;0.9;;;;;;;8.69;90.0166;93731.78;;;;
2022/09/28 02:00:57;;;;;;;1.2;0.9;;;;;;;8.69;90.0166;93731.78;;;;
2022/09/28 02:02:02;;;;;;;1.2;0.9;;;;;;;8.69;90.0166;93731.78;;;;
2022/09/28 02:03:05;;;;;;;1.2;0.9;;;;;;;8.69;90.0166;93731.78;;;;
2022/09/28 02:04:13;;;;;;;1.2;0.9;;;;;;;8.69;90.0166;93731.78;;;;
2022/09/28 02:05:17;;;;;;;1.2;0.9;;;;;;;8.69;90.0166;93731.78;;;;
2022/09/28 02:06:23;;;;;;;1.2;0.9;;;;;;;8.69;90.0166;93731.78;;;;
2022/09/28 02:07:29;;;;;;;1.2;0.9;;;;;;;8.69;90.0166;93731.78;;;;
2022/09/28 02:08:36;;;;;;;1.2;0.9;;;;;;;8.69;90.0166;93731.78;;;;
2022/09/28 02:09:45;;;;;;;1.65;0.9;;;;;;;8.76;90.13672;93701.34;;;;
2022/09/28 02:10:50;;;;;;;1.65;0.9;;;;;;;8.76;90.13672;93701.34;;;;
2022/09/28 02:11:59;;;;;;;1.65;0.9;;;;;;;8.76;90.13672;93701.34;;;;
2022/09/28 02:13:08;;;;;;;1.65;0.9;;;;;;;8.76;90.13672;93701.34;;;;
2022/09/28 02:14:14;;;;;;;1.65;0.9;;;;;;;8.76;90.13672;93701.34;;;;
2022/09/28 02:15:17;;;;;;;1.65;0.9;;;;;;;8.76;90.13672;93701.34;;;;
2022/09/28 02:16:22;;;;;;;1.65;0.9;;;;;;;8.76;90.13672;93701.34;;;;
2022/09/28 02:17:32;;;;;;;1.65;0.9;;;;;;;8.76;90.13672;93701.34;;;;
2022/09/28 02:18:33;;;;;;;1.65;0.9;;;;;;;8.76;90.13672;93701.34;;;;
2022/09/28 02:19:34;;;;;;;1.05;0.95;;;;;;;8.82;90.00977;93681.93;;;;
2022/09/28 02:20:35;;;;;;;1.05;0.95;;;;;;;8.82;90.00977;93681.93;;;;
2022/09/28 02:21:38;;;;;;;1.05;0.95;;;;;;;8.82;90.00977;93681.93;;;;
2022/09/28 02:22:44;;;;;;;1.05;0.95;;;;;;;8.82;90.00977;93681.93;;;;
2022/09/28 02:23:48;;;;;;;1.05;0.95;;;;;;;8.82;90.00977;93681.93;;;;
2022/09/28 02:24:54;;;;;;;1.05;0.95;;;;;;;8.82;90.00977;93681.93;;;;
2022/09/28 02:25:58;;;;;;;1.05;0.95;;;;;;;8.82;90.00977;93681.93;;;;
2022/09/28 02:27:02;;;;;;;1.05;0.95;;;;;;;8.82;90.00977;93681.93;;;;
2022/09/28 02:28:12;;;;;;;1.05;0.95;;;;;;;8.82;90.00977;93681.93;;;;
2022/09/28 02:29:12;;;;;;;1.05;0.95;;;;;;;8.82;90.00977;93681.93;;;;
2022/09/28 02:30:13;;;;;;;1.65;0.9;;;;;;;8.73;89.90723;93663.62;;;;
2022/09/28 02:31:14;;;;;;;1.65;0.9;;;;;;;8.73;89.90723;93663.62;;;;
2022/09/28 02:32:14;;;;;;;1.65;0.9;;;;;;;8.73;89.90723;93663.62;;;;
2022/09/28 02:33:18;;;;;;;1.65;0.9;;;;;;;8.73;89.90723;93663.62;;;;
2022/09/28 02:34:23;;;;;;;1.65;0.9;;;;;;;8.73;89.90723;93663.62;;;;
2022/09/28 02:35:24;;;;;;;1.65;0.9;;;;;;;8.73;89.90723;93663.62;;;;
2022/09/28 02:36:24;;;;;;;1.65;0.9;;;;;;;8.73;89.90723;93663.62;;;;
2022/09/28 02:37:26;;;;;;;1.65;0.9;;;;;;;8.73;89.90723;93663.62;;;;
2022/09/28 02:38:27;;;;;;;1.65;0.9;;;;;;;8.73;89.90723;93663.62;;;;
2022/09/28 02:39:27;;;;;;;1.65;0.9;;;;;;;8.73;89.90723;93663.62;;;;
2022/09/28 02:40:28;;;;;;;1.65;0.9;;;;;;;8.73;89.90723;93663.62;;;;
2022/09/28 02:41:31;;;;;;;1.7;1.1;;;;;;;8.52;89.90527;93638.92;;;;
2022/09/28 02:42:46;;;;;;;1.7;1.1;;;;;;;8.52;89.90527;93638.92;;;;
2022/09/28 02:43:57;;;;;;;1.7;1.1;;;;;;;8.52;89.90527;93638.92;;;;
2022/09/28 02:45:10;;;;;;;1.7;1.1;;;;;;;8.52;89.90527;93638.92;;;;
2022/09/28 02:46:23;;;;;;;1.7;1.1;;;;;;;8.52;89.90527;93638.92;;;;
2022/09/28 02:47:31;;;;;;;1.7;1.1;;;;;;;8.52;89.90527;93638.92;;;;
2022/09/28 02:48:45;;;;;;;1.7;1.1;;;;;;;8.52;89.90527;93638.92;;;;
2022/09/28 02:49:59;;;;;;;1.7;1.1;;;;;;;8.52;89.90527;93638.92;;;;
2022/09/28 02:51:10;;;;;;;1.7;1.1;;;;;;;8.52;89.90527;93638.92;;;;
2022/09/28 02:52:19;;;;;;;1.2;1;;;;;;;8.32;90.19727;93620.45;;;;
2022/09/28 02:53:35;;;;;;;1.2;1;;;;;;;8.32;90.19727;93620.45;;;;
2022/09/28 02:54:54;;;;;;;1.2;1;;;;;;;8.32;90.19727;93620.45;;;;
2022/09/28 02:56:15;;;;;;;1.2;1;;;;;;;8.32;90.19727;93620.45;;;;
2022/09/28 02:57:34;;;;;;;1.2;1;;;;;;;8.32;90.19727;93620.45;;;;
2022/09/28 02:58:46;;;;;;;1.2;1;;;;;;;8.32;90.19727;93620.45;;;;
2022/09/28 02:59:55;;;;;;;1.2;1;;;;;;;8.32;90.19727;93620.45;;;;
2022/09/28 03:01:03;;;;;;;1.2;1;;;;;;;8.32;90.19727;93620.45;;;;
2022/09/28 03:02:14;;;;;;;1.45;1;;;;;;;8.35;90.41602;93610.76;;;;
2022/09/28 03:03:24;;;;;;;1.45;1;;;;;;;8.35;90.41602;93610.76;;;;
2022/09/28 03:04:32;;;;;;;1.45;1;;;;;;;8.35;90.41602;93610.76;;;;
2022/09/28 03:05:39;;;;;;;1.45;1;;;;;;;8.35;90.41602;93610.76;;;;
2022/09/28 03:06:51;;;;;;;1.45;1;;;;;;;8.35;90.41602;93610.76;;;;
2022/09/28 03:07:57;;;;;;;1.45;1;;;;;;;8.35;90.41602;93610.76;;;;
2022/09/28 03:09:00;;;;;;;1.45;1;;;;;;;8.35;90.41602;93610.76;;;;
2022/09/28 03:10:08;;;;;;;1.45;1;;;;;;;8.35;90.41602;93610.76;;;;
2022/09/28 03:11:14;;;;;;;1.45;1;;;;;;;8.35;90.41602;93610.76;;;;
2022/09/28 03:12:22;;;;;;;1.45;1;;;;;;;8.35;90.41602;93610.76;;;;
2022/09/28 03:13:25;;;;;;;1.2;1;;;;;;;8.35;90.25586;93581.8;;;;
2022/09/28 03:14:27;;;;;;;1.2;1;;;;;;;8.35;90.25586;93581.8;;;;
2022/09/28 03:15:27;;;;;;;1.2;1;;;;;;;8.35;90.25586;93581.8;;;;
2022/09/28 03:16:30;;;;;;;1.2;1;;;;;;;8.35;90.25586;93581.8;;;;
2022/09/28 03:17:31;;;;;;;1.2;1;;;;;;;8.35;90.25586;93581.8;;;;
2022/09/28 03:18:31;;;;;;;1.2;1;;;;;;;8.35;90.25586;93581.8;;;;
2022/09/28 03:19:32;;;;;;;1.2;1;;;;;;;8.35;90.25586;93581.8;;;;
2022/09/28 03:20:34;;;;;;;1.2;1;;;;;;;8.35;90.25586;93581.8;;;;
2022/09/28 03:21:34;;;;;;;1.2;1;;;;;;;8.35;90.25586;93581.8;;;;
2022/09/28 03:22:35;;;;;;;1.2;1;;;;;;;8.35;90.25586;93581.8;;;;
2022/09/28 03:23:35;;;;;;;1.5;0.95;;;;;;;8.17;90.04688;93600.56;;;;
2022/09/28 03:24:35;;;;;;;1.5;0.95;;;;;;;8.17;90.04688;93600.56;;;;
2022/09/28 03:25:36;;;;;;;1.5;0.95;;;;;;;8.17;90.04688;93600.56;;;;
2022/09/28 03:26:37;;;;;;;1.5;0.95;;;;;;;8.17;90.04688;93600.56;;;;
2022/09/28 03:27:37;;;;;;;1.5;0.95;;;;;;;8.17;90.04688;93600.56;;;;
2022/09/28 03:28:38;;;;;;;1.5;0.95;;;;;;;8.17;90.04688;93600.56;;;;
2022/09/28 03:29:39;;;;;;;1.5;0.95;;;;;;;8.17;90.04688;93600.56;;;;
2022/09/28 03:30:41;;;;;;;1.5;0.95;;;;;;;8.17;90.04688;93600.56;;;;
2022/09/28 03:31:42;;;;;;;1.5;0.95;;;;;;;8.17;90.04688;93600.56;;;;
2022/09/28 03:32:43;;;;;;;1.5;0.95;;;;;;;8.17;90.04688;93600.56;;;;
2022/09/28 03:33:43;;;;;;;1.5;0.95;;;;;;;8.17;90.04688;93600.56;;;;
2022/09/28 03:34:44;;;;;;;1.6;1.1;;;;;;;7.95;90.20508;93593.47;;;;
2022/09/28 03:35:44;;;;;;;1.6;1.1;;;;;;;7.95;90.20508;93593.47;;;;
2022/09/28 03:36:45;;;;;;;1.6;1.1;;;;;;;7.95;90.20508;93593.47;;;;
2022/09/28 03:37:46;;;;;;;1.6;1.1;;;;;;;7.95;90.20508;93593.47;;;;
2022/09/28 03:38:46;;;;;;;1.6;1.1;;;;;;;7.95;90.20508;93593.47;;;;
2022/09/28 03:39:47;;;;;;;1.6;1.1;;;;;;;7.95;90.20508;93593.47;;;;
2022/09/28 03:40:47;;;;;;;1.6;1.1;;;;;;;7.95;90.20508;93593.47;;;;
2022/09/28 03:41:52;;;;;;;1.6;1.1;;;;;;;7.95;90.20508;93593.47;;;;
2022/09/28 03:42:53;;;;;;;1.6;1.1;;;;;;;7.95;90.20508;93593.47;;;;
2022/09/28 03:43:53;;;;;;;1.6;1.1;;;;;;;7.95;90.20508;93593.47;;;;
2022/09/28 03:44:55;;;;;;;3.95;1.2;;;;;;;7.83;90.40039;93585.77;;;;
2022/09/28 03:45:56;;;;;;;3.95;1.2;;;;;;;7.83;90.40039;93585.77;;;;
2022/09/28 03:46:58;;;;;;;3.95;1.2;;;;;;;7.83;90.40039;93585.77;;;;
2022/09/28 03:47:59;;;;;;;3.95;1.2;;;;;;;7.83;90.40039;93585.77;;;;
2022/09/28 03:48:59;;;;;;;3.95;1.2;;;;;;;7.83;90.40039;93585.77;;;;
2022/09/28 03:50:00;;;;;;;3.95;1.2;;;;;;;7.83;90.40039;93585.77;;;;
2022/09/28 03:51:00;;;;;;;3.95;1.2;;;;;;;7.83;90.40039;93585.77;;;;
2022/09/28 03:52:03;;;;;;;3.95;1.2;;;;;;;7.83;90.40039;93585.77;;;;
2022/09/28 03:53:03;;;;;;;3.95;1.2;;;;;;;7.83;90.40039;93585.77;;;;
2022/09/28 03:54:04;;;;;;;3.95;1.2;;;;;;;7.83;90.40039;93585.77;;;;
2022/09/28 03:55:05;;;;;;;3.95;1.2;;;;;;;7.83;90.40039;93585.77;;;;
2022/09/28 03:56:06;;;;;;;2.65;1.2;;;;;;;7.86;90.65527;93578.58;;;;
2022/09/28 03:57:10;;;;;;;2.65;1.2;;;;;;;7.86;90.65527;93578.58;;;;
2022/09/28 03:58:10;;;;;;;2.65;1.2;;;;;;;7.86;90.65527;93578.58;;;;
2022/09/28 03:59:11;;;;;;;2.65;1.2;;;;;;;7.86;90.65527;93578.58;;;;
2022/09/28 04:00:11;;;;;;;2.65;1.2;;;;;;;7.86;90.65527;93578.58;;;;
2022/09/28 04:01:12;;;;;;;2.65;1.2;;;;;;;7.86;90.65527;93578.58;;;;
2022/09/28 04:02:14;;;;;;;2.65;1.2;;;;;;;7.86;90.65527;93578.58;;;;
2022/09/28 04:03:14;;;;;;;2.65;1.2;;;;;;;7.86;90.65527;93578.58;;;;
2022/09/28 04:04:15;;;;;;;2.65;1.2;;;;;;;7.86;90.65527;93578.58;;;;
2022/09/28 04:05:15;;;;;;;2.65;1.2;;;;;;;7.86;90.65527;93578.58;;;;
2022/09/28 04:06:16;;;;;;;1.8;1;;;;;;;8.05;90.75684;93564.29;;;;
2022/09/28 04:07:16;;;;;;;1.8;1;;;;;;;8.05;90.75684;93564.29;;;;
2022/09/28 04:08:17;;;;;;;1.8;1;;;;;;;8.05;90.75684;93564.29;;;;
2022/09/28 04:09:18;;;;;;;1.8;1;;;;;;;8.05;90.75684;93564.29;;;;
2022/09/28 04:10:18;;;;;;;1.8;1;;;;;;;8.05;90.75684;93564.29;;;;
2022/09/28 04:11:19;;;;;;;1.8;1;;;;;;;8.05;90.75684;93564.29;;;;
2022/09/28 04:12:20;;;;;;;1.8;1;;;;;;;8.05;90.75684;93564.29;;;;
2022/09/28 04:13:20;;;;;;;1.8;1;;;;;;;8.05;90.75684;93564.29;;;;
2022/09/28 04:14:21;;;;;;;1.8;1;;;;;;;8.05;90.75684;93564.29;;;;
2022/09/28 04:15:21;;;;;;;1.8;1;;;;;;;8.05;90.75684;93564.29;;;;
2022/09/28 04:16:22;;;;;;;1.8;1;;;;;;;8.05;90.75684;93564.29;;;;
2022/09/28 04:17:22;;;;;;;2.2;1;;;;;;;8.22;90.63184;93552.33;;;;
2022/09/28 04:18:23;;;;;;;2.2;1;;;;;;;8.22;90.63184;93552.33;;;;
2022/09/28 04:19:25;;;;;;;2.2;1;;;;;;;8.22;90.63184;93552.33;;;;
2022/09/28 04:20:26;;;;;;;2.2;1;;;;;;;8.22;90.63184;93552.33;;;;
2022/09/28 04:21:26;;;;;;;2.2;1;;;;;;;8.22;90.63184;93552.33;;;;
2022/09/28 04:22:26;;;;;;;2.2;1;;;;;;;8.22;90.63184;93552.33;;;;
2022/09/28 04:23:27;;;;;;;2.2;1;;;;;;;8.22;90.63184;93552.33;;;;
2022/09/28 04:24:28;;;;;;;2.2;1;;;;;;;8.22;90.63184;93552.33;;;;
2022/09/28 04:25:29;;;;;;;2.2;1;;;;;;;8.22;90.63184;93552.33;;;;
2022/09/28 04:26:29;;;;;;;2.2;1;;;;;;;8.22;90.63184;93552.33;;;;
2022/09/28 04:32:42;;;;;;;1.1;0.8;;;;;;;8.37;90.53711;93557.36;;;;
2022/09/28 04:33:45;;;;;;;1.1;0.8;;;;;;;8.37;90.53711;93557.36;;;;
2022/09/28 04:34:45;;;;;;;1.1;0.8;;;;;;;8.37;90.53711;93557.36;;;;
2022/09/28 04:35:46;;;;;;;1.1;0.8;;;;;;;8.37;90.53711;93557.36;;;;
2022/09/28 04:36:46;;;;;;;1.1;0.8;;;;;;;8.37;90.53711;93557.36;;;;
2022/09/28 04:37:47;;;;;;;1.1;0.8;;;;;;;8.37;90.53711;93557.36;;;;
2022/09/28 04:38:48;;;;;;;0.9;0.9;;;;;;;8.48;90.42188;93550.8;;;;
2022/09/28 04:39:48;;;;;;;0.9;0.9;;;;;;;8.48;90.42188;93550.8;;;;
2022/09/28 04:40:49;;;;;;;0.9;0.9;;;;;;;8.48;90.42188;93550.8;;;;
2022/09/28 04:41:50;;;;;;;0.9;0.9;;;;;;;8.48;90.42188;93550.8;;;;
2022/09/28 04:42:50;;;;;;;0.9;0.9;;;;;;;8.48;90.42188;93550.8;;;;
2022/09/28 04:43:53;;;;;;;0.9;0.9;;;;;;;8.48;90.42188;93550.8;;;;
2022/09/28 04:44:54;;;;;;;0.9;0.9;;;;;;;8.48;90.42188;93550.8;;;;
2022/09/28 04:45:54;;;;;;;0.9;0.9;;;;;;;8.48;90.42188;93550.8;;;;
2022/09/28 04:46:57;;;;;;;0.9;0.9;;;;;;;8.48;90.42188;93550.8;;;;
2022/09/28 04:47:57;;;;;;;0.9;0.9;;;;;;;8.48;90.42188;93550.8;;;;
2022/09/28 04:48:58;;;;;;;1.7;0.75;;;;;;;8.56;90.32031;93548.3;;;;
2022/09/28 04:49:58;;;;;;;1.7;0.75;;;;;;;8.56;90.32031;93548.3;;;;
2022/09/28 04:50:59;;;;;;;1.7;0.75;;;;;;;8.56;90.32031;93548.3;;;;
2022/09/28 04:51:59;;;;;;;1.7;0.75;;;;;;;8.56;90.32031;93548.3;;;;
2022/09/28 04:53:00;;;;;;;1.7;0.75;;;;;;;8.56;90.32031;93548.3;;;;
2022/09/28 04:54:01;;;;;;;1.7;0.75;;;;;;;8.56;90.32031;93548.3;;;;
2022/09/28 04:55:01;;;;;;;1.7;0.75;;;;;;;8.56;90.32031;93548.3;;;;
2022/09/28 04:56:02;;;;;;;1.7;0.75;;;;;;;8.56;90.32031;93548.3;;;;
2022/09/28 04:57:04;;;;;;;1.7;0.75;;;;;;;8.56;90.32031;93548.3;;;;
2022/09/28 04:58:05;;;;;;;1.7;0.75;;;;;;;8.56;90.32031;93548.3;;;;
2022/09/28 04:59:05;;;;;;;1.7;0.75;;;;;;;8.56;90.32031;93548.3;;;;
2022/09/28 05:00:07;;;;;;;0.7;0.7;;;;;;;8.54;90.2207;93552.08;;;;
2022/09/28 05:01:09;;;;;;;0.7;0.7;;;;;;;8.54;90.2207;93552.08;;;;
2022/09/28 05:02:13;;;;;;;0.7;0.7;;;;;;;8.54;90.2207;93552.08;;;;
2022/09/28 05:03:14;;;;;;;0.7;0.7;;;;;;;8.54;90.2207;93552.08;;;;
2022/09/28 05:04:15;;;;;;;0.7;0.7;;;;;;;8.54;90.2207;93552.08;;;;
2022/09/28 05:05:15;;;;;;;0.7;0.7;;;;;;;8.54;90.2207;93552.08;;;;
2022/09/28 05:06:16;;;;;;;0.7;0.7;;;;;;;8.54;90.2207;93552.08;;;;
2022/09/28 05:07:16;;;;;;;0.7;0.7;;;;;;;8.54;90.2207;93552.08;;;;
2022/09/28 05:08:17;;;;;;;0.7;0.7;;;;;;;8.54;90.2207;93552.08;;;;
2022/09/28 05:09:18;;;;;;;0.7;0.7;;;;;;;8.54;90.2207;93552.08;;;;
2022/09/28 05:10:18;;;;;;;0.9;0.9;;;;;;;8.51;90.35156;93568.87;;;;
2022/09/28 05:11:20;;;;;;;0.9;0.9;;;;;;;8.51;90.35156;93568.87;;;;
2022/09/28 05:12:21;;;;;;;0.9;0.9;;;;;;;8.51;90.35156;93568.87;;;;
2022/09/28 05:13:21;;;;;;;0.9;0.9;;;;;;;8.51;90.35156;93568.87;;;;
2022/09/28 05:14:22;;;;;;;0.9;0.9;;;;;;;8.51;90.35156;93568.87;;;;
2022/09/28 05:15:22;;;;;;;0.9;0.9;;;;;;;8.51;90.35156;93568.87;;;;
2022/09/28 05:16:24;;;;;;;0.9;0.9;;;;;;;8.51;90.35156;93568.87;;;;
2022/09/28 05:17:25;;;;;;;0.9;0.9;;;;;;;8.51;90.35156;93568.87;;;;
2022/09/28 05:18:25;;;;;;;0.9;0.9;;;;;;;8.51;90.35156;93568.87;;;;
2022/09/28 05:19:26;;;;;;;0.9;0.9;;;;;;;8.51;90.35156;93568.87;;;;
2022/09/28 05:20:27;;;;;;;0.9;0.9;;;;;;;8.51;90.35156;93568.87;;;;
2022/09/28 05:21:29;;;;;;;1.35;1;;;;;;;8.5;90.45605;93562;;;;
2022/09/28 05:22:30;;;;;;;1.35;1;;;;;;;8.5;90.45605;93562;;;;
2022/09/28 05:23:31;;;;;;;1.35;1;;;;;;;8.5;90.45605;93562;;;;
2022/09/28 05:24:32;;;;;;;1.35;1;;;;;;;8.5;90.45605;93562;;;;
2022/09/28 05:25:33;;;;;;;1.35;1;;;;;;;8.5;90.45605;93562;;;;
2022/09/28 05:26:33;;;;;;;1.35;1;;;;;;;8.5;90.45605;93562;;;;
2022/09/28 05:27:34;;;;;;;1.35;1;;;;;;;8.5;90.45605;93562;;;;
2022/09/28 05:28:34;;;;;;;1.35;1;;;;;;;8.5;90.45605;93562;;;;
2022/09/28 05:29:35;;;;;;;1.35;1;;;;;;;8.5;90.45605;93562;;;;
2022/09/28 05:30:35;;;;;;;1.35;1;;;;;;;8.5;90.45605;93562;;;;
2022/09/28 05:31:36;;;;;;;2.35;1;;;;;;;8.47;90.46094;93546.17;;;;
2022/09/28 05:32:36;;;;;;;2.35;1;;;;;;;8.47;90.46094;93546.17;;;;
2022/09/28 05:33:39;;;;;;;2.35;1;;;;;;;8.47;90.46094;93546.17;;;;
2022/09/28 05:34:39;;;;;;;2.35;1;;;;;;;8.47;90.46094;93546.17;;;;
2022/09/28 05:35:40;;;;;;;2.35;1;;;;;;;8.47;90.46094;93546.17;;;;
2022/09/28 05:36:41;;;;;;;2.35;1;;;;;;;8.47;90.46094;93546.17;;;;
2022/09/28 05:37:42;;;;;;;2.35;1;;;;;;;8.47;90.46094;93546.17;;;;
2022/09/28 05:38:42;;;;;;;2.35;1;;;;;;;8.47;90.46094;93546.17;;;;
2022/09/28 05:39:43;;;;;;;2.35;1;;;;;;;8.47;90.46094;93546.17;;;;
2022/09/28 05:40:43;;;;;;;2.35;1;;;;;;;8.47;90.46094;93546.17;;;;
2022/09/28 05:41:44;;;;;;;2.35;1;;;;;;;8.47;90.46094;93546.17;;;;
2022/09/28 05:42:44;;;;;;;1.35;0.95;;;;;;;8.47;90.55664;93527.75;;;;
2022/09/28 05:43:45;;;;;;;1.35;0.95;;;;;;;8.47;90.55664;93527.75;;;;
2022/09/28 05:44:45;;;;;;;1.35;0.95;;;;;;;8.47;90.55664;93527.75;;;;
2022/09/28 05:45:46;;;;;;;1.35;0.95;;;;;;;8.47;90.55664;93527.75;;;;
2022/09/28 05:46:47;;;;;;;1.35;0.95;;;;;;;8.47;90.55664;93527.75;;;;
2022/09/28 05:47:47;;;;;;;1.35;0.95;;;;;;;8.47;90.55664;93527.75;;;;
2022/09/28 05:48:48;;;;;;;1.35;0.95;;;;;;;8.47;90.55664;93527.75;;;;
2022/09/28 05:49:49;;;;;;;1.35;0.95;;;;;;;8.47;90.55664;93527.75;;;;
2022/09/28 05:50:49;;;;;;;1.35;0.95;;;;;;;8.47;90.55664;93527.75;;;;
2022/09/28 05:51:51;;;;;;;1.35;0.95;;;;;;;8.47;90.55664;93527.75;;;;
2022/09/28 05:52:51;;;;;;;1.2;1.05;;;;;;;8.47;90.53516;93530.78;;;;
2022/09/28 05:54:01;;;;;;;1.2;1.05;;;;;;;8.47;90.53516;93530.78;;;;
2022/09/28 05:55:02;;;;;;;1.2;1.05;;;;;;;8.47;90.53516;93530.78;;;;
2022/09/28 05:56:03;;;;;;;1.2;1.05;;;;;;;8.47;90.53516;93530.78;;;;
2022/09/28 05:57:03;;;;;;;1.2;1.05;;;;;;;8.47;90.53516;93530.78;;;;
2022/09/28 05:58:04;;;;;;;1.2;1.05;;;;;;;8.47;90.53516;93530.78;;;;
2022/09/28 05:59:05;;;;;;;1.2;1.05;;;;;;;8.47;90.53516;93530.78;;;;
2022/09/28 06:00:07;;;;;;;1.2;1.05;;;;;;;8.47;90.53516;93530.78;;;;
2022/09/28 06:01:09;;;;;;;1.2;1.05;;;;;;;8.47;90.53516;93530.78;;;;
2022/09/28 06:02:09;;;;;;;1.2;1.05;;;;;;;8.47;90.53516;93530.78;;;;
2022/09/28 06:03:10;;;;;;;1.2;1.05;;;;;;;8.47;90.53516;93530.78;;;;
2022/09/28 06:04:14;;;;;;;1.1;1;;;;;;;8.51;90.61914;93507.4;;;;
2022/09/28 06:05:15;;;;;;;1.1;1;;;;;;;8.51;90.61914;93507.4;;;;
2022/09/28 06:06:15;;;;;;;1.1;1;;;;;;;8.51;90.61914;93507.4;;;;
2022/09/28 06:07:16;;;;;;;1.1;1;;;;;;;8.51;90.61914;93507.4;;;;
2022/09/28 06:08:16;;;;;;;1.1;1;;;;;;;8.51;90.61914;93507.4;;;;
2022/09/28 06:09:17;;;;;;;1.1;1;;;;;;;8.51;90.61914;93507.4;;;;
2022/09/28 06:10:18;;;;;;;1.1;1;;;;;;;8.51;90.61914;93507.4;;;;
2022/09/28 06:11:18;;;;;;;1.1;1;;;;;;;8.51;90.61914;93507.4;;;;
2022/09/28 06:12:18;;;;;;;1.1;1;;;;;;;8.51;90.61914;93507.4;;;;
2022/09/28 06:13:19;;;;;;;1.1;1;;;;;;;8.51;90.61914;93507.4;;;;
2022/09/28 06:14:20;;;;;;;1.25;1.15;;;;;;;8.46;90.58887;93483.09;;;;
2022/09/28 06:15:20;;;;;;;1.25;1.15;;;;;;;8.46;90.58887;93483.09;;;;
2022/09/28 06:16:21;;;;;;;1.25;1.15;;;;;;;8.46;90.58887;93483.09;;;;
2022/09/28 06:17:22;;;;;;;1.25;1.15;;;;;;;8.46;90.58887;93483.09;;;;
2022/09/28 06:18:22;;;;;;;1.25;1.15;;;;;;;8.46;90.58887;93483.09;;;;
2022/09/28 06:19:23;;;;;;;1.25;1.15;;;;;;;8.46;90.58887;93483.09;;;;